Hutton, Maryland
Current Conditions -  °F | °C
As of 10:35 AM on Saturday 22 Nov 2014 (Local Time) from K2G4 Reporting Station
Overcast Overcast  
Wind Chill: 29°   Ceiling: 3100
Heat Index: 37°   Visibility: 10mi
Dew Point: -27°   Wind: 14mph
Humidity: 5%   Direction: 220°SW
Pressure: 30.29"   Gusts: 20mph
Location:  39.3804°N, 79.3888°W
Report Text: K2G4 221535Z AUTO 22012G17KT 10SM BKN031 OVC055 03/M33 A3029 RMK AO1
Loading
Personal Weather Stations






























Interactive Weather Map New forecast layout! Learn more

10-Day Weather Forecast

Advertisements
Track Severe Weather on mobile